createdAt,value
2023-01-28T00:02:10.878Z,8.90
2023-01-28T00:04:40.328Z,17.98
2023-01-28T00:07:08.727Z,24.55
2023-01-28T00:09:37.109Z,28.10
2023-01-28T00:12:06.115Z,40.55
2023-01-28T00:14:35.949Z,28.67
2023-01-28T00:17:06.808Z,30.75
2023-01-28T00:19:35.153Z,15.38
2023-01-28T00:22:04.655Z,13.25
2023-01-28T00:24:32.979Z,16.45
2023-01-28T00:27:01.631Z,21.00
2023-01-28T00:29:30.029Z,18.38
2023-01-28T00:31:59.801Z,23.90
2023-01-28T00:34:28.245Z,13.55
2023-01-28T00:36:58.594Z,17.65
2023-01-28T00:39:27.942Z,7.30
2023-01-28T00:41:56.384Z,17.73
2023-01-28T00:44:24.845Z,10.65
2023-01-28T00:46:53.097Z,8.85
2023-01-28T00:49:22.917Z,9.15
2023-01-28T00:51:51.225Z,13.63
2023-01-28T00:54:19.600Z,24.60
2023-01-28T00:56:47.977Z,20.08
2023-01-28T00:59:16.729Z,28.77
2023-01-28T01:01:45.189Z,17.15
2023-01-28T01:04:13.508Z,13.82
2023-01-28T01:06:43.264Z,16.42
2023-01-28T01:09:13.443Z,16.23
2023-01-28T01:11:41.804Z,14.80
2023-01-28T01:14:12.577Z,24.42
2023-01-28T01:16:41.024Z,32.30
2023-01-28T01:19:09.504Z,22.48
2023-01-28T01:21:38.094Z,32.70
2023-01-28T01:24:08.645Z,30.52
2023-01-28T01:26:37.171Z,18.17
2023-01-28T01:29:05.471Z,43.22
2023-01-28T01:31:33.895Z,35.40
2023-01-28T01:34:02.187Z,24.17
2023-01-28T01:36:30.541Z,29.42
2023-01-28T01:38:58.862Z,23.02
2023-01-28T01:41:32.126Z,46.05
2023-01-28T01:44:02.509Z,27.75
2023-01-28T01:46:37.657Z,28.85
2023-01-28T01:49:16.528Z,23.27
2023-01-28T01:51:47.476Z,24.38
2023-01-28T01:54:17.064Z,27.23
2023-01-28T01:56:51.335Z,24.90
2023-01-28T01:59:26.060Z,22.98
2023-01-28T02:01:55.423Z,14.30
2023-01-28T02:04:27.543Z,25.50
2023-01-28T02:06:56.646Z,16.95
2023-01-28T02:09:27.007Z,20.77
2023-01-28T02:11:59.685Z,38.65
2023-01-28T02:14:32.026Z,46.00
2023-01-28T02:17:01.827Z,29.75
2023-01-28T02:19:38.920Z,33.70
2023-01-28T02:22:40.027Z,21.88
2023-01-28T02:25:35.814Z,26.45
2023-01-28T02:28:17.385Z,22.20
2023-01-28T02:30:54.533Z,31.27
2023-01-28T02:33:31.575Z,22.25
2023-01-28T02:36:09.923Z,38.28
2023-01-28T02:38:45.071Z,27.13
2023-01-28T02:41:21.605Z,32.75
2023-01-28T02:43:52.072Z,26.80
2023-01-28T02:46:41.342Z,20.10
2023-01-28T02:49:15.734Z,31.42
2023-01-28T02:52:02.365Z,16.08
2023-01-28T02:54:38.617Z,29.60
2023-01-28T02:57:19.079Z,18.98
2023-01-28T02:59:58.903Z,18.50
2023-01-28T03:02:36.540Z,23.10
2023-01-28T03:05:09.091Z,35.10
2023-01-28T03:07:39.865Z,33.53
2023-01-28T03:10:13.276Z,28.42
2023-01-28T03:13:02.394Z,35.47
2023-01-28T03:15:54.368Z,21.85
2023-01-28T03:18:44.300Z,21.33
2023-01-28T03:21:34.209Z,30.50
2023-01-28T03:24:24.664Z,44.13
2023-01-28T03:27:16.779Z,36.33
2023-01-28T03:30:03.943Z,20.15
2023-01-28T03:32:52.564Z,14.70
2023-01-28T03:35:42.401Z,18.58
2023-01-28T03:38:21.148Z,19.10
2023-01-28T03:40:53.724Z,18.63
2023-01-28T03:43:22.165Z,25.08
2023-01-28T03:45:51.659Z,14.65
2023-01-28T03:48:22.701Z,17.67
2023-01-28T03:50:51.559Z,12.88
2023-01-28T03:53:23.216Z,18.05
2023-01-28T03:55:53.388Z,10.05
2023-01-28T03:58:23.250Z,13.65
2023-01-28T04:00:52.444Z,13.00
2023-01-28T04:03:23.195Z,14.82
2023-01-28T04:06:00.973Z,12.20
2023-01-28T04:08:29.327Z,18.85
2023-01-28T04:10:57.686Z,15.07
2023-01-28T04:13:26.238Z,12.52
2023-01-28T04:15:54.576Z,10.10
2023-01-28T04:18:27.686Z,13.52
2023-01-28T04:20:56.012Z,6.72
2023-01-28T04:23:24.369Z,10.00
2023-01-28T04:25:53.184Z,14.77
2023-01-28T04:28:21.552Z,12.10
2023-01-28T04:30:49.850Z,18.52
2023-01-28T04:33:18.183Z,11.65
2023-01-28T04:35:48.292Z,17.00
2023-01-28T04:38:16.642Z,9.75
2023-01-28T04:40:44.952Z,16.83
2023-01-28T04:43:13.321Z,14.00
2023-01-28T04:45:41.681Z,11.07
2023-01-28T04:48:10.028Z,22.15
2023-01-28T04:50:38.333Z,12.82
2023-01-28T04:53:08.126Z,15.43
2023-01-28T04:55:36.556Z,10.95
2023-01-28T04:58:05.545Z,10.93
2023-01-28T05:00:33.969Z,10.88
2023-01-28T05:03:02.356Z,10.07
2023-01-28T05:05:30.704Z,8.95
2023-01-28T05:08:00.120Z,10.77
2023-01-28T05:10:30.065Z,7.18
2023-01-28T05:12:58.434Z,8.65
2023-01-28T05:15:26.792Z,11.27
2023-01-28T05:17:57.103Z,9.70
2023-01-28T05:20:25.407Z,8.73
2023-01-28T05:22:54.025Z,9.13
2023-01-28T05:25:22.391Z,7.63
2023-01-28T05:27:55.178Z,7.65
2023-01-28T05:30:23.733Z,6.13
2023-01-28T05:32:56.599Z,6.47
2023-01-28T05:35:25.020Z,6.55
2023-01-28T05:37:53.373Z,6.40
2023-01-28T05:40:21.891Z,6.18
2023-01-28T05:42:50.307Z,6.40
2023-01-28T05:45:20.100Z,5.05
2023-01-28T05:47:48.533Z,4.75
2023-01-28T05:50:17.776Z,4.95
2023-01-28T05:52:46.374Z,5.50
2023-01-28T05:55:14.798Z,5.70
2023-01-28T05:57:44.649Z,5.38
2023-01-28T06:00:15.317Z,5.53
2023-01-28T06:02:45.868Z,5.47
2023-01-28T06:05:14.621Z,5.25
2023-01-28T06:07:46.268Z,6.18
2023-01-28T06:10:15.396Z,5.97
2023-01-28T06:12:45.293Z,5.93
2023-01-28T06:15:14.039Z,3.53
2023-01-28T06:17:42.299Z,4.03
2023-01-28T06:20:13.591Z,4.32
2023-01-28T06:22:42.149Z,4.55
2023-01-28T06:25:11.299Z,5.03
2023-01-28T06:27:39.679Z,4.90
2023-01-28T06:30:09.548Z,4.70
2023-01-28T06:32:38.240Z,4.65
2023-01-28T06:35:07.571Z,3.65
2023-01-28T06:37:37.237Z,4.25
2023-01-28T06:40:06.740Z,4.25
2023-01-28T06:42:35.051Z,3.47
2023-01-28T06:45:03.509Z,5.03
2023-01-28T06:47:32.444Z,5.60
2023-01-28T06:50:00.758Z,5.70
2023-01-28T06:52:29.014Z,5.72
2023-01-28T06:54:59.202Z,5.85
2023-01-28T06:57:27.547Z,5.95
2023-01-28T06:59:55.880Z,5.85
2023-01-28T07:02:26.558Z,6.03
2023-01-28T07:04:55.910Z,5.72
2023-01-28T07:07:24.259Z,6.82
2023-01-28T07:09:52.561Z,7.07
2023-01-28T07:12:22.423Z,8.00
2023-01-28T07:14:50.699Z,6.72
2023-01-28T07:17:19.132Z,7.50
2023-01-28T07:19:47.563Z,7.10
2023-01-28T07:22:15.904Z,8.43
2023-01-28T07:24:44.243Z,6.47
2023-01-28T07:27:12.656Z,4.43
2023-01-28T07:29:42.520Z,3.88
2023-01-28T07:32:11.000Z,4.32
2023-01-28T07:34:41.842Z,5.25
2023-01-28T07:37:10.287Z,5.88
2023-01-28T07:39:38.613Z,5.63
2023-01-28T07:42:06.987Z,7.20
2023-01-28T07:44:35.954Z,6.13
2023-01-28T07:47:07.152Z,7.05
2023-01-28T07:49:35.753Z,7.90
2023-01-28T07:52:04.128Z,6.57
2023-01-28T07:54:32.435Z,7.35
2023-01-28T07:57:00.770Z,6.88
2023-01-28T07:59:29.230Z,6.78
2023-01-28T08:01:57.568Z,6.70
2023-01-28T08:04:27.398Z,4.20
2023-01-28T08:06:57.174Z,4.28
2023-01-28T08:09:25.680Z,4.20
2023-01-28T08:11:55.012Z,4.57
2023-01-28T08:14:23.367Z,4.97
2023-01-28T08:16:51.670Z,2.60
2023-01-28T08:19:21.932Z,3.50
2023-01-28T08:21:51.912Z,4.07
2023-01-28T08:24:20.944Z,5.75
2023-01-28T08:26:50.202Z,6.10
2023-01-28T08:29:18.675Z,6.00
2023-01-28T08:31:47.344Z,6.35
2023-01-28T08:34:15.736Z,6.18
2023-01-28T08:36:44.018Z,6.22
2023-01-28T08:39:13.866Z,6.30
2023-01-28T08:41:42.177Z,5.93
2023-01-28T08:44:10.474Z,5.53
2023-01-28T08:46:38.852Z,5.95
2023-01-28T08:49:07.489Z,3.92
2023-01-28T08:51:35.987Z,4.55
2023-01-28T08:54:04.471Z,5.03
2023-01-28T08:56:34.198Z,5.00
2023-01-28T08:59:04.000Z,6.00
2023-01-28T09:01:32.395Z,6.03
2023-01-28T09:04:01.413Z,5.45
2023-01-28T09:06:30.046Z,6.05
2023-01-28T09:08:58.845Z,5.25
2023-01-28T09:11:27.531Z,5.50
2023-01-28T09:13:58.877Z,5.55
2023-01-28T09:16:27.543Z,5.97
2023-01-28T09:18:55.926Z,5.63
2023-01-28T09:21:24.266Z,5.75
2023-01-28T09:23:52.608Z,5.68
2023-01-28T09:26:21.754Z,5.72
2023-01-28T09:28:50.103Z,4.85
2023-01-28T09:31:19.955Z,4.80
2023-01-28T09:33:54.976Z,4.85
2023-01-28T09:36:23.491Z,4.72
2023-01-28T09:38:51.752Z,3.80
2023-01-28T09:41:26.991Z,2.90
2023-01-28T09:44:07.008Z,2.38
2023-01-28T09:46:38.661Z,2.55
2023-01-28T09:49:17.442Z,2.70
2023-01-28T09:51:52.462Z,2.72
2023-01-28T09:54:34.410Z,3.63
2023-01-28T09:57:07.754Z,3.70
2023-01-28T09:59:37.472Z,3.78
2023-01-28T10:02:31.958Z,3.30
2023-01-28T10:05:08.407Z,3.90
2023-01-28T10:07:44.443Z,3.80
2023-01-28T10:10:17.569Z,4.13
2023-01-28T10:13:09.057Z,4.78
2023-01-28T10:15:51.046Z,4.72
2023-01-28T10:18:27.588Z,5.47
2023-01-28T10:21:00.091Z,5.15
2023-01-28T10:23:34.023Z,6.45
2023-01-28T10:26:07.238Z,5.57
2023-01-28T10:28:37.439Z,6.22
2023-01-28T10:31:14.260Z,8.15
2023-01-28T10:33:44.410Z,5.57
2023-01-28T10:36:13.042Z,5.13
2023-01-28T10:38:41.486Z,4.72
2023-01-28T10:41:14.543Z,5.70
2023-01-28T10:43:52.175Z,4.70
2023-01-28T10:46:24.129Z,4.90
2023-01-28T10:49:01.780Z,5.15
2023-01-28T10:51:35.405Z,4.78
2023-01-28T10:56:33.714Z,4.10
2023-01-28T10:59:04.378Z,4.13
2023-01-28T11:01:45.497Z,5.00
2023-01-28T11:04:21.053Z,3.70
2023-01-28T11:06:59.952Z,3.70
2023-01-28T11:09:30.946Z,3.78
2023-01-28T11:11:59.963Z,3.47
2023-01-28T11:14:29.246Z,2.00
2023-01-28T11:17:00.798Z,2.83
2023-01-28T11:19:37.715Z,2.00
2023-01-28T11:22:06.022Z,1.95
2023-01-28T11:24:35.743Z,1.70
2023-01-28T11:27:17.076Z,2.03
2023-01-28T11:29:46.078Z,2.38
2023-01-28T11:32:22.441Z,4.47
2023-01-28T11:34:54.074Z,8.55
2023-01-28T11:37:24.115Z,2.40
2023-01-28T11:40:04.124Z,2.40
2023-01-28T11:42:33.554Z,3.35
2023-01-28T11:45:02.769Z,2.28
2023-01-28T11:47:48.188Z,3.40
2023-01-28T11:50:25.653Z,4.05
2023-01-28T11:53:06.942Z,2.78
2023-01-28T11:55:53.046Z,2.58
2023-01-28T11:58:27.463Z,3.05
2023-01-28T12:01:05.574Z,3.38
2023-01-28T12:04:20.320Z,2.63
2023-01-28T12:07:01.327Z,3.53
2023-01-28T12:09:39.999Z,11.15
2023-01-28T12:12:23.699Z,3.28
2023-01-28T12:15:33.944Z,4.03
2023-01-28T12:18:16.945Z,4.15
2023-01-28T12:20:54.226Z,3.72
2023-01-28T12:23:37.523Z,4.15
2023-01-28T12:26:12.719Z,4.60
2023-01-28T12:28:56.315Z,4.72
2023-01-28T12:31:53.586Z,5.13
2023-01-28T12:34:52.097Z,4.30
2023-01-28T12:37:32.056Z,4.40
2023-01-28T12:40:17.956Z,4.15
2023-01-28T12:42:53.284Z,4.85
2023-01-28T12:45:26.288Z,4.63
2023-01-28T12:48:00.238Z,5.13
2023-01-28T12:50:33.408Z,5.50
2023-01-28T12:53:08.053Z,4.63
2023-01-28T12:55:42.743Z,4.40
2023-01-28T12:58:19.052Z,4.22
2023-01-28T13:00:52.035Z,4.82
2023-01-28T13:03:28.532Z,4.30
2023-01-28T13:06:03.295Z,3.83
2023-01-28T13:08:32.484Z,6.88
2023-01-28T13:11:05.960Z,7.18
2023-01-28T13:13:37.502Z,4.80
2023-01-28T13:16:09.050Z,4.53
2023-01-28T13:18:46.576Z,4.85
2023-01-28T13:21:18.703Z,4.07
2023-01-28T13:23:48.877Z,2.90
2023-01-28T13:26:39.203Z,3.33
2023-01-28T13:29:22.540Z,3.45
2023-01-28T13:31:54.061Z,3.65
2023-01-28T13:34:36.480Z,3.35
2023-01-28T13:37:22.250Z,3.70
2023-01-28T13:39:53.812Z,3.20
2023-01-28T13:42:29.216Z,3.90
2023-01-28T13:45:00.099Z,4.22
2023-01-28T13:47:32.207Z,4.45
2023-01-28T13:50:04.212Z,3.28
2023-01-28T13:52:37.952Z,9.05
2023-01-28T13:55:23.721Z,3.13
2023-01-28T13:58:46.773Z,3.13
2023-01-28T14:01:32.656Z,3.10
2023-01-28T14:04:40.838Z,3.20
2023-01-28T14:07:20.139Z,2.88
2023-01-28T14:10:03.207Z,2.92
2023-01-28T14:12:58.289Z,2.40
2023-01-28T14:15:54.840Z,2.08
2023-01-28T14:18:28.686Z,1.88
2023-01-28T14:21:02.042Z,2.10
2023-01-28T14:23:32.618Z,3.05
2023-01-28T14:26:16.283Z,2.35
2023-01-28T14:28:54.708Z,2.92
2023-01-28T14:31:29.580Z,2.40
2023-01-28T14:34:06.193Z,2.40
2023-01-28T14:36:39.388Z,2.20
2023-01-28T14:39:13.765Z,2.67
2023-01-28T14:41:45.679Z,3.03
2023-01-28T14:44:28.636Z,2.80
2023-01-28T14:47:13.195Z,1.97
2023-01-28T14:49:57.231Z,2.58
2023-01-28T14:52:50.194Z,3.30
2023-01-28T14:55:35.345Z,3.53
2023-01-28T14:58:07.210Z,2.97
2023-01-28T15:00:36.765Z,2.97
2023-01-28T15:03:26.641Z,2.78
2023-01-28T15:06:05.788Z,2.60
2023-01-28T15:08:38.975Z,2.53
2023-01-28T15:11:09.314Z,4.00
2023-01-28T15:13:41.286Z,2.90
2023-01-28T15:16:16.390Z,7.53
2023-01-28T15:18:47.122Z,2.53
2023-01-28T15:21:16.473Z,2.30
2023-01-28T15:23:45.317Z,1.90
2023-01-28T15:26:18.823Z,2.20
2023-01-28T15:28:48.571Z,2.47
2023-01-28T15:31:23.119Z,2.17
2023-01-28T15:34:01.117Z,2.50
2023-01-28T15:36:30.440Z,2.17
2023-01-28T15:38:59.504Z,2.70
2023-01-28T15:41:31.395Z,2.40
2023-01-28T15:43:59.886Z,2.60
2023-01-28T15:46:28.359Z,2.08
2023-01-28T15:49:02.134Z,2.30
2023-01-28T15:51:34.012Z,2.00
2023-01-28T15:54:07.322Z,2.20
2023-01-28T15:56:36.256Z,2.42
2023-01-28T15:59:19.086Z,3.47
2023-01-28T16:01:47.406Z,2.83
2023-01-28T16:04:26.552Z,3.47
2023-01-28T16:06:56.325Z,4.70
2023-01-28T16:09:28.688Z,2.47
2023-01-28T16:12:04.179Z,2.53
2023-01-28T16:14:40.924Z,2.22
2023-01-28T16:17:09.668Z,1.90
2023-01-28T16:19:42.765Z,2.15
2023-01-28T16:22:21.451Z,2.25
2023-01-28T16:24:52.404Z,2.25
2023-01-28T16:27:23.547Z,2.42
2023-01-28T16:29:51.912Z,3.45
2023-01-28T16:32:31.217Z,3.20
2023-01-28T16:35:01.026Z,3.38
2023-01-28T16:37:29.312Z,2.38
2023-01-28T16:39:59.090Z,2.25
2023-01-28T16:42:29.816Z,2.70
2023-01-28T16:44:58.225Z,2.50
2023-01-28T16:47:26.690Z,2.35
2023-01-28T16:49:55.043Z,2.35
2023-01-28T16:52:24.812Z,2.00
2023-01-28T16:54:53.152Z,2.15
2023-01-28T16:57:23.454Z,2.08
2023-01-28T16:59:51.781Z,3.92
2023-01-28T17:02:20.127Z,3.58
2023-01-28T17:04:48.419Z,3.10
2023-01-28T17:07:16.804Z,2.80
2023-01-28T17:09:46.518Z,2.42
2023-01-28T17:12:14.878Z,2.70
2023-01-28T17:14:43.179Z,2.50
2023-01-28T17:17:16.111Z,2.75
2023-01-28T17:19:46.108Z,3.10
2023-01-28T17:22:14.463Z,3.00
2023-01-28T17:24:42.802Z,2.42
2023-01-28T17:27:14.630Z,2.78
2023-01-28T17:29:43.157Z,2.88
2023-01-28T17:32:11.741Z,2.88
2023-01-28T17:34:40.108Z,3.40
2023-01-28T17:37:08.510Z,3.20
2023-01-28T17:39:36.886Z,3.88
2023-01-28T17:42:05.692Z,2.00
2023-01-28T17:44:35.676Z,2.15
2023-01-28T17:47:03.960Z,2.25
2023-01-28T17:49:32.261Z,1.85
2023-01-28T17:52:00.740Z,7.05
2023-01-28T17:54:29.639Z,5.28
2023-01-28T17:56:58.859Z,2.53
2023-01-28T17:59:27.271Z,3.03
2023-01-28T18:01:57.435Z,2.15
2023-01-28T18:04:25.756Z,3.00
2023-01-28T18:06:54.111Z,3.65
2023-01-28T18:09:22.858Z,2.30
2023-01-28T18:11:53.258Z,2.80
2023-01-28T18:14:21.858Z,2.08
2023-01-28T18:16:50.308Z,2.00
2023-01-28T18:19:20.231Z,2.40
2023-01-28T18:21:53.499Z,2.33
2023-01-28T18:24:23.920Z,4.47
2023-01-28T18:26:52.957Z,3.72
2023-01-28T18:29:24.214Z,2.97
2023-01-28T18:31:54.462Z,3.00
2023-01-28T18:34:25.870Z,3.20
2023-01-28T18:36:54.888Z,3.10
2023-01-28T18:39:23.447Z,3.20
2023-01-28T18:41:55.928Z,3.10
2023-01-28T18:44:25.592Z,3.10
2023-01-28T18:46:54.733Z,2.90
2023-01-28T18:49:24.907Z,3.85
2023-01-28T18:51:53.162Z,2.90
2023-01-28T18:54:21.680Z,3.10
2023-01-28T18:56:50.661Z,3.70
2023-01-28T18:59:19.722Z,3.40
2023-01-28T19:01:48.178Z,3.40
2023-01-28T19:04:16.993Z,3.30
2023-01-28T19:06:47.467Z,3.88
2023-01-28T19:09:16.897Z,3.88
2023-01-28T19:11:46.387Z,3.30
2023-01-28T19:14:16.312Z,4.50
2023-01-28T19:16:45.526Z,3.90
2023-01-28T19:19:14.015Z,3.53
2023-01-28T19:21:43.559Z,3.72
2023-01-28T19:24:16.127Z,3.65
2023-01-28T19:26:46.696Z,4.32
2023-01-28T19:29:17.374Z,6.05
2023-01-28T19:31:49.433Z,9.07
2023-01-28T19:34:19.958Z,4.40
2023-01-28T19:36:49.561Z,5.03
2023-01-28T19:39:22.061Z,4.63
2023-01-28T19:41:52.076Z,5.38
2023-01-28T19:44:22.013Z,4.95
2023-01-28T19:46:52.741Z,5.03
2023-01-28T19:49:22.619Z,5.10
2023-01-28T19:51:52.957Z,5.13
2023-01-28T19:54:24.347Z,5.38
2023-01-28T19:56:54.461Z,5.13
2023-01-28T19:59:22.990Z,5.40
2023-01-28T20:01:51.732Z,5.47
2023-01-28T20:04:20.104Z,6.20
2023-01-28T20:06:51.586Z,5.63
2023-01-28T20:09:22.045Z,6.18
2023-01-28T20:11:53.358Z,6.78
2023-01-28T20:14:23.075Z,6.32
2023-01-28T20:16:52.594Z,7.47
2023-01-28T20:19:23.229Z,7.18
2023-01-28T20:21:54.442Z,8.68
2023-01-28T20:24:24.210Z,5.22
2023-01-28T20:26:55.549Z,4.93
2023-01-28T20:29:25.346Z,5.65
2023-01-28T20:32:13.689Z,5.97
2023-01-28T20:34:45.783Z,6.80
2023-01-28T20:37:15.555Z,7.65
2023-01-28T20:39:45.154Z,9.20
2023-01-28T20:42:17.003Z,7.00
2023-01-28T20:44:47.133Z,7.78
2023-01-28T20:47:16.773Z,9.93
2023-01-28T20:49:46.640Z,6.30
2023-01-28T20:52:16.658Z,5.95
2023-01-28T20:54:46.975Z,5.22
2023-01-28T20:57:19.670Z,5.30
2023-01-28T20:59:49.892Z,5.20
2023-01-28T21:02:19.794Z,5.40
2023-01-28T21:04:49.506Z,6.65
2023-01-28T21:07:20.120Z,6.10
2023-01-28T21:09:48.489Z,5.88
2023-01-28T21:12:19.842Z,5.65
2023-01-28T21:14:49.226Z,5.45
2023-01-28T21:17:18.681Z,5.20
2023-01-28T21:19:49.067Z,5.68
2023-01-28T21:22:20.618Z,6.25
2023-01-28T21:24:51.700Z,7.53
2023-01-28T21:27:23.491Z,7.55
2023-01-28T21:29:52.978Z,7.15
2023-01-28T21:32:25.560Z,6.55
2023-01-28T21:34:56.358Z,5.00
2023-01-28T21:37:26.243Z,5.50
2023-01-28T21:39:55.951Z,5.10
2023-01-28T21:42:27.651Z,5.05
2023-01-28T21:44:57.461Z,5.22
2023-01-28T21:47:27.628Z,5.80
2023-01-28T21:49:58.426Z,6.45
2023-01-28T21:52:27.841Z,5.78
2023-01-28T21:54:59.524Z,3.65
2023-01-28T21:57:30.827Z,4.57
2023-01-28T22:00:00.150Z,5.05
2023-01-28T22:02:29.940Z,4.03
2023-01-28T22:04:59.578Z,8.57
2023-01-28T22:07:29.476Z,9.05
2023-01-28T22:09:57.854Z,4.75
2023-01-28T22:12:27.622Z,5.35
2023-01-28T22:14:57.447Z,4.65
2023-01-28T22:17:26.430Z,4.18
2023-01-28T22:19:55.037Z,4.05
2023-01-28T22:22:23.413Z,4.40
2023-01-28T22:24:52.181Z,4.30
2023-01-28T22:27:20.543Z,4.20
2023-01-28T22:29:48.848Z,4.43
2023-01-28T22:32:18.517Z,4.50
2023-01-28T22:34:47.072Z,5.18
2023-01-28T22:37:15.562Z,5.00
2023-01-28T22:39:43.930Z,4.00
2023-01-28T22:42:12.322Z,3.90
2023-01-28T22:44:40.571Z,3.67
2023-01-28T22:47:08.999Z,4.32
2023-01-28T22:49:38.772Z,4.97
2023-01-28T22:52:07.043Z,5.55
2023-01-28T22:54:35.490Z,5.45
2023-01-28T22:57:03.840Z,4.88
2023-01-28T22:59:33.406Z,4.20
2023-01-28T23:02:01.753Z,4.47
2023-01-28T23:04:30.411Z,4.70
2023-01-28T23:07:00.176Z,4.30
2023-01-28T23:09:28.774Z,4.00
2023-01-28T23:11:57.416Z,4.75
2023-01-28T23:14:48.464Z,3.88
2023-01-28T23:17:34.077Z,3.95
2023-01-28T23:20:19.694Z,4.22
2023-01-28T23:23:07.249Z,4.32
2023-01-28T23:25:35.736Z,3.95
2023-01-28T23:28:04.037Z,4.45
2023-01-28T23:30:32.698Z,4.18
2023-01-28T23:33:02.022Z,4.45
2023-01-28T23:35:31.128Z,4.10
2023-01-28T23:38:01.254Z,4.28
2023-01-28T23:40:29.606Z,3.58
2023-01-28T23:42:58.333Z,3.67
2023-01-28T23:45:26.716Z,3.92
2023-01-28T23:47:55.137Z,3.85
2023-01-28T23:50:24.097Z,4.05
2023-01-28T23:52:52.538Z,3.63
2023-01-28T23:55:22.258Z,3.58
2023-01-28T23:57:50.687Z,4.40
